Delta Virtual Airport Information Service

Key West International Airport

ICAO: KEYW Country: United States
Latitude: 24.5561 Longitude: -81.7595
Latest Arrival : DAC700 (KMIA-KEYW) Latest Departure : DAL2135 (1B) (KEYW-KATL)


WX CaptureLIVE
Data provided by noaa.gov | Fetched at 13:27:37

METAR : KEYW 241753Z 11011KT 10SM FEW020 SCT035 28/24 A2986 RMK AO2 SLP110 60000 T02780244 10283 20267 58017

TAF : KEYW 241739Z 2418/2518 11012KT P6SM VCSH SCT015 SCT035 BKN120 TEMPO 2500/2504 3SM SHRA BKN015 OVC035 FM250400 14012KT 5SM SHRA SCT015 BKN035 OVC150 PROB30 2504/2510 3SM TSRA BKN012CB OVC035 FM251400 15010G16KT P6SM VCSH SCT015 SCT035 BKN120


Runway Data for KEYW
Data provided by openaviationdata.com

Runway ID Mag Var Hdg Length Elevation Surface ILS Freq ILS Id ILS Slope
9 -3 92° 4797 ft 3 ft Asphalt -- -- --
27 -3 272° 4797 ft 3 ft Asphalt -- -- --

Key West International Airport, United States
Use only for reference purposes



Not for navigational purposes.